Time;durP1;ratioP1;P1;durP2;ratioP2;P2;SDS_P1;SDS_P2;PMS_P1;PMS_P2;Temp;Humidity;BMP_temperature;BMP_pressure;BME280_temperature;BME280_humidity;BME280_pressure;Samples;Min_cycle;Max_cycle;Signal;HPM_P1;HPM_P2
2022/11/24 00:01:09;;;;;;;31.55;3.85;;;;;;;;;;5041673;28;20454;-78
2022/11/24 00:03:37;;;;;;;23.88;4.63;;;;;;;;;;5039934;28;20108;-78
2022/11/24 00:06:07;;;;;;;43.40;4.78;;;;;;;;;;5049345;28;20048;-78
2022/11/24 00:08:36;;;;;;;33.63;4.35;;;;;;;;;;5046199;28;20054;-78
2022/11/24 00:11:04;;;;;;;39.13;3.88;;;;;;;;;;5044923;28;20049;-78
2022/11/24 00:13:32;;;;;;;37.60;4.13;;;;;;;;;;5063274;28;20144;-78
2022/11/24 00:16:20;;;;;;;31.73;3.55;;;;;;;;;;5048007;28;20136;-77
2022/11/24 00:18:48;;;;;;;30.70;3.83;;;;;;;;;;5047402;28;20049;-78
2022/11/24 00:21:16;;;;;;;22.48;3.17;;;;;;;;;;5045557;28;20049;-78
2022/11/24 00:23:44;;;;;;;12.48;2.83;;;;;;;;;;5049087;28;20108;-78
2022/11/24 00:26:13;;;;;;;27.27;3.60;;;;;;;;;;5062484;28;20049;-78
2022/11/24 00:28:41;;;;;;;22.77;2.83;;;;;;;;;;5064955;28;20046;-78
2022/11/24 00:31:23;;;;;;;30.42;4.45;;;;;;;;;;5047190;28;20049;-78
2022/11/24 00:33:51;;;;;;;32.13;3.53;;;;;;;;;;5047208;28;20077;-78
2022/11/24 00:36:19;;;;;;;29.17;3.10;;;;;;;;;;5050320;28;20050;-78
2022/11/24 00:38:47;;;;;;;29.67;3.85;;;;;;;;;;5050059;28;20041;-78
2022/11/24 00:41:17;;;;;;;38.92;3.70;;;;;;;;;;5042397;28;20060;-78
2022/11/24 00:43:45;;;;;;;22.65;3.58;;;;;;;;;;5048853;28;20114;-78
2022/11/24 00:46:13;;;;;;;31.15;3.42;;;;;;;;;;5051397;28;20049;-79
2022/11/24 00:48:41;;;;;;;45.00;4.32;;;;;;;;;;5049283;28;20042;-78
2022/11/24 00:51:10;;;;;;;41.00;4.20;;;;;;;;;;5044864;28;20045;-78
2022/11/24 00:53:37;;;;;;;32.72;3.95;;;;;;;;;;5050777;28;20069;-78
2022/11/24 00:56:11;;;;;;;18.70;3.88;;;;;;;;;;5048603;28;20042;-78
2022/11/24 00:58:41;;;;;;;30.77;4.13;;;;;;;;;;5047806;28;20057;-78
2022/11/24 01:01:15;;;;;;;27.50;3.90;;;;;;;;;;5044714;28;20050;-78
2022/11/24 01:03:43;;;;;;;31.85;3.40;;;;;;;;;;5044594;28;20132;-78
2022/11/24 01:06:12;;;;;;;32.97;4.13;;;;;;;;;;5046083;28;20054;-78
2022/11/24 01:08:40;;;;;;;28.88;3.85;;;;;;;;;;5046786;28;20822;-79
2022/11/24 01:11:11;;;;;;;27.45;3.60;;;;;;;;;;5054919;28;20046;-78
2022/11/24 01:13:39;;;;;;;24.02;3.83;;;;;;;;;;5048018;28;20084;-78
2022/11/24 01:16:12;;;;;;;24.25;3.40;;;;;;;;;;5046172;28;20104;-78
2022/11/24 01:18:40;;;;;;;37.00;3.75;;;;;;;;;;5044818;28;20116;-78
2022/11/24 01:21:09;;;;;;;46.50;4.13;;;;;;;;;;5045167;28;20073;-78
2022/11/24 01:23:36;;;;;;;30.17;4.25;;;;;;;;;;5048256;28;20065;-79
2022/11/24 01:26:10;;;;;;;23.02;3.45;;;;;;;;;;5048122;28;20045;-78
2022/11/24 01:28:39;;;;;;;27.73;3.97;;;;;;;;;;5047178;28;20056;-78
2022/11/24 01:31:14;;;;;;;29.70;3.70;;;;;;;;;;5047639;28;20062;-78
2022/11/24 01:33:42;;;;;;;33.72;3.97;;;;;;;;;;5045169;28;20079;-78
2022/11/24 01:36:10;;;;;;;20.27;3.72;;;;;;;;;;5059778;28;20054;-78
2022/11/24 01:38:38;;;;;;;21.60;3.67;;;;;;;;;;5038565;28;20061;-78
2022/11/24 01:41:13;;;;;;;30.10;3.55;;;;;;;;;;5045103;28;20130;-78
2022/11/24 01:43:44;;;;;;;29.52;3.53;;;;;;;;;;5049602;28;20151;-78
2022/11/24 01:46:15;;;;;;;24.25;3.22;;;;;;;;;;5045502;28;20053;-78
2022/11/24 01:48:45;;;;;;;25.58;3.38;;;;;;;;;;5046899;28;20053;-77
2022/11/24 01:51:14;;;;;;;25.08;3.80;;;;;;;;;;5045971;28;20049;-78
2022/11/24 01:53:47;;;;;;;35.28;3.72;;;;;;;;;;5048726;28;20825;-78
2022/11/24 01:56:14;;;;;;;17.48;3.58;;;;;;;;;;5044079;28;20053;-78
2022/11/24 01:58:43;;;;;;;20.50;3.53;;;;;;;;;;5043672;28;20076;-78
2022/11/24 02:01:10;;;;;;;19.52;3.13;;;;;;;;;;5049164;28;20054;-78
2022/11/24 02:03:40;;;;;;;22.25;3.78;;;;;;;;;;5041884;28;20045;-78
2022/11/24 02:06:09;;;;;;;30.98;4.00;;;;;;;;;;5050624;28;20058;-78
2022/11/24 02:08:44;;;;;;;17.85;3.15;;;;;;;;;;5048236;28;20080;-79
2022/11/24 02:11:12;;;;;;;27.45;3.00;;;;;;;;;;5043977;28;20065;-78
2022/11/24 02:13:43;;;;;;;29.85;3.47;;;;;;;;;;5048614;28;20079;-78
2022/11/24 02:16:13;;;;;;;20.95;2.67;;;;;;;;;;5047194;28;20057;-78
2022/11/24 02:18:41;;;;;;;19.02;2.47;;;;;;;;;;5044994;28;20508;-78
2022/11/24 02:21:13;;;;;;;27.23;3.22;;;;;;;;;;5044088;28;20041;-78
2022/11/24 02:23:44;;;;;;;20.80;3.00;;;;;;;;;;5047550;28;20041;-78
2022/11/24 02:26:30;;;;;;;28.83;3.30;;;;;;;;;;5049551;28;20053;-78
2022/11/24 02:28:57;;;;;;;17.98;2.85;;;;;;;;;;5040399;28;20083;-78
2022/11/24 02:31:24;;;;;;;16.45;2.35;;;;;;;;;;5045738;28;20427;-78
2022/11/24 02:33:52;;;;;;;19.67;2.92;;;;;;;;;;5056728;28;20054;-78
2022/11/24 02:36:19;;;;;;;19.65;2.85;;;;;;;;;;5052486;28;20061;-78
2022/11/24 02:38:47;;;;;;;16.92;2.30;;;;;;;;;;5068695;28;20049;-78
2022/11/24 02:41:16;;;;;;;15.18;2.83;;;;;;;;;;5045157;28;20053;-78
2022/11/24 02:43:50;;;;;;;33.20;3.80;;;;;;;;;;5047943;28;20049;-78
2022/11/24 02:46:17;;;;;;;27.02;3.17;;;;;;;;;;5051171;28;20149;-78
2022/11/24 02:48:45;;;;;;;22.40;2.17;;;;;;;;;;5048916;28;20034;-79
2022/11/24 02:51:13;;;;;;;22.58;2.53;;;;;;;;;;5048053;28;20053;-78
2022/11/24 02:53:44;;;;;;;17.90;3.05;;;;;;;;;;5047656;28;20087;-78
2022/11/24 02:56:12;;;;;;;25.58;3.45;;;;;;;;;;5042318;28;20054;-78
2022/11/24 02:58:39;;;;;;;12.70;2.58;;;;;;;;;;5051164;28;20037;-78
2022/11/24 03:01:07;;;;;;;17.88;2.33;;;;;;;;;;5051018;28;20084;-78
2022/11/24 03:03:35;;;;;;;14.00;2.53;;;;;;;;;;5046779;28;20053;-78
2022/11/24 03:06:02;;;;;;;19.42;3.17;;;;;;;;;;5052379;28;20057;-78
2022/11/24 03:08:29;;;;;;;20.00;3.00;;;;;;;;;;5044732;28;20033;-78
2022/11/24 03:10:56;;;;;;;23.30;3.53;;;;;;;;;;5047761;28;20050;-78
2022/11/24 03:13:24;;;;;;;35.80;3.55;;;;;;;;;;5048213;28;20050;-78
2022/11/24 03:15:51;;;;;;;15.90;2.92;;;;;;;;;;5044010;28;20064;-79
2022/11/24 03:18:18;;;;;;;18.42;2.63;;;;;;;;;;5045307;28;20049;-79
2022/11/24 03:20:45;;;;;;;22.70;2.65;;;;;;;;;;5050184;28;20170;-78
2022/11/24 03:23:12;;;;;;;21.95;2.78;;;;;;;;;;5049407;28;20049;-78
2022/11/24 03:25:39;;;;;;;18.30;3.03;;;;;;;;;;5048211;28;20908;-78
2022/11/24 03:28:10;;;;;;;23.25;2.80;;;;;;;;;;5040880;28;20104;-78
2022/11/24 03:30:37;;;;;;;19.58;2.60;;;;;;;;;;5046751;28;20061;-78
2022/11/24 03:33:10;;;;;;;15.50;2.30;;;;;;;;;;5047861;28;20500;-78
2022/11/24 03:35:38;;;;;;;16.70;2.60;;;;;;;;;;5043593;28;20064;-79
2022/11/24 03:38:08;;;;;;;22.13;3.33;;;;;;;;;;5044040;28;20101;-78
2022/11/24 03:40:36;;;;;;;17.30;2.80;;;;;;;;;;5045068;28;20054;-78
2022/11/24 03:43:05;;;;;;;13.20;2.70;;;;;;;;;;5046063;28;20049;-78
2022/11/24 03:45:32;;;;;;;16.27;2.60;;;;;;;;;;5048254;28;20056;-78
2022/11/24 03:48:15;;;;;;;19.60;2.55;;;;;;;;;;5044668;28;20169;-78
2022/11/24 03:50:43;;;;;;;15.05;2.70;;;;;;;;;;5048283;28;20045;-78
2022/11/24 03:53:10;;;;;;;16.35;3.10;;;;;;;;;;5049300;28;20100;-78
2022/11/24 03:55:38;;;;;;;14.63;2.45;;;;;;;;;;5051108;28;20124;-78
2022/11/24 03:58:05;;;;;;;17.38;2.90;;;;;;;;;;5044708;28;20524;-78
2022/11/24 04:00:33;;;;;;;15.18;2.60;;;;;;;;;;5048454;28;20041;-78
2022/11/24 04:03:00;;;;;;;18.33;3.15;;;;;;;;;;5042662;28;20772;-78
2022/11/24 04:05:27;;;;;;;16.98;2.60;;;;;;;;;;5047624;28;20064;-78
2022/11/24 04:08:02;;;;;;;24.45;3.92;;;;;;;;;;5047791;28;20049;-79
2022/11/24 04:10:30;;;;;;;16.08;2.60;;;;;;;;;;5043173;28;20084;-78
2022/11/24 04:12:57;;;;;;;20.50;2.88;;;;;;;;;;5044252;28;20060;-78
2022/11/24 04:15:24;;;;;;;22.25;3.70;;;;;;;;;;5050950;28;21008;-78
2022/11/24 04:17:54;;;;;;;20.70;2.85;;;;;;;;;;5042412;28;20809;-78
2022/11/24 04:20:22;;;;;;;21.20;2.75;;;;;;;;;;5050287;28;20140;-78
2022/11/24 04:22:50;;;;;;;15.55;2.92;;;;;;;;;;5052315;28;20101;-79
2022/11/24 04:25:17;;;;;;;16.52;2.35;;;;;;;;;;5061794;28;20054;-78
2022/11/24 04:27:44;;;;;;;15.65;2.30;;;;;;;;;;5052377;28;20064;-78
2022/11/24 04:30:12;;;;;;;17.33;2.58;;;;;;;;;;5040201;28;20050;-79
2022/11/24 04:32:39;;;;;;;18.23;3.38;;;;;;;;;;5044529;28;20054;-78
2022/11/24 04:35:06;;;;;;;27.45;3.50;;;;;;;;;;5046695;28;20108;-79
2022/11/24 04:37:36;;;;;;;20.48;3.17;;;;;;;;;;5044565;28;20058;-79
2022/11/24 04:40:04;;;;;;;21.83;2.63;;;;;;;;;;5044252;28;20057;-78
2022/11/24 04:42:33;;;;;;;21.90;3.05;;;;;;;;;;5050524;28;20050;-78
2022/11/24 04:45:01;;;;;;;20.20;3.00;;;;;;;;;;5048197;28;20060;-79
2022/11/24 04:47:29;;;;;;;16.40;2.83;;;;;;;;;;5052275;28;20054;-78
2022/11/24 04:49:57;;;;;;;27.38;3.17;;;;;;;;;;5051268;28;20141;-78
2022/11/24 04:52:25;;;;;;;21.55;3.22;;;;;;;;;;5048472;28;20786;-78
2022/11/24 04:54:52;;;;;;;17.42;3.28;;;;;;;;;;5049337;28;20054;-78
2022/11/24 04:57:20;;;;;;;18.33;2.85;;;;;;;;;;5044383;28;20065;-79
2022/11/24 04:59:48;;;;;;;16.45;3.10;;;;;;;;;;5046008;28;20794;-79
2022/11/24 05:02:15;;;;;;;18.92;3.30;;;;;;;;;;5049012;28;20050;-79
2022/11/24 05:04:43;;;;;;;11.35;2.90;;;;;;;;;;5048507;28;20057;-78
2022/11/24 05:07:11;;;;;;;15.18;2.47;;;;;;;;;;5049704;28;21074;-78
2022/11/24 05:12:31;;;;;;;9.90;3.10;;;;;;;;;;5044814;28;20081;-78
2022/11/24 05:14:59;;;;;;;10.13;2.88;;;;;;;;;;5041029;28;20053;-78
2022/11/24 05:17:30;;;;;;;15.57;3.05;;;;;;;;;;5048946;28;20073;-79
2022/11/24 05:19:58;;;;;;;13.73;2.85;;;;;;;;;;5048357;28;20042;-78
2022/11/24 05:22:26;;;;;;;14.27;3.33;;;;;;;;;;5049540;28;20061;-78
2022/11/24 05:24:53;;;;;;;12.18;3.10;;;;;;;;;;5065378;28;20146;-79
2022/11/24 05:27:21;;;;;;;18.73;3.55;;;;;;;;;;5044495;28;20081;-79
2022/11/24 05:29:48;;;;;;;7.65;2.88;;;;;;;;;;5053323;28;20053;-79
2022/11/24 05:32:15;;;;;;;11.68;3.10;;;;;;;;;;5049557;28;20072;-80
2022/11/24 05:34:44;;;;;;;8.35;2.70;;;;;;;;;;5052803;28;20079;-79
2022/11/24 05:37:11;;;;;;;8.02;2.25;;;;;;;;;;5048588;28;20107;-79
2022/11/24 05:39:38;;;;;;;7.97;2.50;;;;;;;;;;5051932;28;20046;-80
2022/11/24 05:44:53;;;;;;;12.25;2.45;;;;;;;;;;5045117;28;20068;-79
2022/11/24 05:47:21;;;;;;;10.15;2.10;;;;;;;;;;5044630;28;20042;-79
2022/11/24 05:49:48;;;;;;;11.35;1.98;;;;;;;;;;5052081;28;20057;-79
2022/11/24 05:52:15;;;;;;;7.80;1.77;;;;;;;;;;5043330;28;20049;-79
2022/11/24 05:54:45;;;;;;;11.50;1.80;;;;;;;;;;5046528;28;20933;-79
2022/11/24 05:57:12;;;;;;;5.78;2.17;;;;;;;;;;5049860;28;20057;-79
2022/11/24 05:59:39;;;;;;;8.43;1.88;;;;;;;;;;5044315;28;20060;-79
2022/11/24 06:02:07;;;;;;;10.27;2.00;;;;;;;;;;5049068;28;20046;-78
2022/11/24 06:04:52;;;;;;;7.25;2.20;;;;;;;;;;5045504;28;20068;-79
2022/11/24 06:07:19;;;;;;;7.55;1.85;;;;;;;;;;5039363;28;20054;-80
2022/11/24 06:09:50;;;;;;;9.70;2.35;;;;;;;;;;5042502;28;20107;-79
2022/11/24 06:12:20;;;;;;;8.20;2.53;;;;;;;;;;5040820;28;20054;-80
2022/11/24 06:14:51;;;;;;;6.47;1.83;;;;;;;;;;5043955;28;20060;-80
2022/11/24 06:17:21;;;;;;;6.53;1.85;;;;;;;;;;5050986;28;20029;-79
2022/11/24 06:19:50;;;;;;;9.98;1.90;;;;;;;;;;5040205;28;20110;-80
2022/11/24 06:22:18;;;;;;;7.15;2.03;;;;;;;;;;5043940;28;20090;-80
2022/11/24 06:24:46;;;;;;;9.98;2.20;;;;;;;;;;5054055;28;20053;-79
2022/11/24 06:27:13;;;;;;;5.47;1.85;;;;;;;;;;5050586;28;20045;-79
2022/11/24 06:29:40;;;;;;;7.13;2.08;;;;;;;;;;5050040;28;20137;-78
2022/11/24 06:32:11;;;;;;;9.38;2.42;;;;;;;;;;5044758;28;20060;-79
2022/11/24 06:34:46;;;;;;;6.85;2.15;;;;;;;;;;5050482;28;20052;-79
2022/11/24 06:37:13;;;;;;;13.15;2.63;;;;;;;;;;5045959;28;20049;-79
2022/11/24 06:39:40;;;;;;;9.20;2.80;;;;;;;;;;5044769;28;20542;-80
2022/11/24 06:42:17;;;;;;;5.85;3.10;;;;;;;;;;5050852;28;20142;-80
2022/11/24 06:44:48;;;;;;;7.78;2.78;;;;;;;;;;5040439;28;20070;-79
2022/11/24 06:47:17;;;;;;;8.77;4.35;;;;;;;;;;5045800;28;20038;-79
2022/11/24 06:49:44;;;;;;;7.47;3.47;;;;;;;;;;5044846;28;20914;-79
2022/11/24 06:52:12;;;;;;;7.88;3.83;;;;;;;;;;5037574;28;20053;-79
2022/11/24 06:54:39;;;;;;;12.85;4.53;;;;;;;;;;5044372;28;20137;-79
2022/11/24 06:57:06;;;;;;;16.88;4.63;;;;;;;;;;5048668;28;20057;-79
2022/11/24 06:59:37;;;;;;;6.47;4.13;;;;;;;;;;5050463;28;20119;-79
2022/11/24 07:02:04;;;;;;;10.77;5.65;;;;;;;;;;5052058;28;20049;-79
2022/11/24 07:04:36;;;;;;;11.50;5.10;;;;;;;;;;5049369;28;20080;-79
2022/11/24 07:07:03;;;;;;;12.23;5.53;;;;;;;;;;5046718;28;20111;-79
2022/11/24 07:09:30;;;;;;;14.15;5.63;;;;;;;;;;5045738;28;20140;-79
2022/11/24 07:11:58;;;;;;;11.70;6.00;;;;;;;;;;5042580;28;20050;-79
2022/11/24 07:14:25;;;;;;;13.00;6.20;;;;;;;;;;5048772;28;20045;-79
2022/11/24 07:16:52;;;;;;;18.95;6.40;;;;;;;;;;5049776;28;20061;-79
2022/11/24 07:19:20;;;;;;;16.20;6.82;;;;;;;;;;5045803;28;20049;-79
2022/11/24 07:21:51;;;;;;;13.57;6.63;;;;;;;;;;5064185;28;20521;-79
2022/11/24 07:24:18;;;;;;;13.82;6.50;;;;;;;;;;5049798;28;20050;-79
2022/11/24 07:26:46;;;;;;;16.00;6.95;;;;;;;;;;5049679;28;20049;-79
2022/11/24 07:29:13;;;;;;;14.40;6.60;;;;;;;;;;5048406;28;20052;-79
2022/11/24 07:31:44;;;;;;;13.25;6.70;;;;;;;;;;5062504;28;20057;-80
2022/11/24 07:34:13;;;;;;;17.73;7.00;;;;;;;;;;5055608;28;20049;-80
2022/11/24 07:36:41;;;;;;;17.33;6.93;;;;;;;;;;5046792;28;20884;-79
2022/11/24 07:39:12;;;;;;;14.88;7.32;;;;;;;;;;5049975;28;20052;-79
2022/11/24 07:41:42;;;;;;;14.13;6.97;;;;;;;;;;5047862;28;20049;-79
2022/11/24 07:44:12;;;;;;;17.67;6.82;;;;;;;;;;5046781;28;20049;-79
2022/11/24 07:46:39;;;;;;;14.32;7.13;;;;;;;;;;5047594;28;20054;-80
2022/11/24 07:49:07;;;;;;;15.73;6.95;;;;;;;;;;5042010;28;20053;-79
2022/11/24 07:51:36;;;;;;;15.02;6.88;;;;;;;;;;5044744;28;20057;-79
2022/11/24 07:54:07;;;;;;;19.95;7.32;;;;;;;;;;5071067;28;20140;-79
2022/11/24 07:56:35;;;;;;;19.33;7.43;;;;;;;;;;5055633;28;20929;-80
2022/11/24 07:59:03;;;;;;;16.85;6.90;;;;;;;;;;5053629;28;20136;-80
2022/11/24 08:01:31;;;;;;;14.48;6.88;;;;;;;;;;5058435;28;20097;-80
2022/11/24 08:03:58;;;;;;;20.67;6.88;;;;;;;;;;5063500;28;20101;-79
2022/11/24 08:06:28;;;;;;;16.48;7.40;;;;;;;;;;5055097;28;20094;-79
2022/11/24 08:09:06;;;;;;;18.75;6.43;;;;;;;;;;5059420;28;20049;-80
2022/11/24 08:11:37;;;;;;;23.10;8.23;;;;;;;;;;5059785;28;20049;-80
2022/11/24 08:14:06;;;;;;;24.98;7.50;;;;;;;;;;5055053;28;20065;-79
2022/11/24 08:16:33;;;;;;;23.83;7.00;;;;;;;;;;5054527;28;20092;-80
2022/11/24 08:19:00;;;;;;;20.02;7.45;;;;;;;;;;5055798;28;20107;-80
2022/11/24 08:21:27;;;;;;;17.02;6.22;;;;;;;;;;5048424;28;20054;-80
2022/11/24 08:23:55;;;;;;;25.88;6.53;;;;;;;;;;5051443;28;20058;-80
2022/11/24 08:26:23;;;;;;;29.05;7.10;;;;;;;;;;5071290;28;20068;-80
2022/11/24 08:28:54;;;;;;;25.33;8.88;;;;;;;;;;5064716;28;20113;-80
2022/11/24 08:31:21;;;;;;;16.50;6.38;;;;;;;;;;5055654;28;20049;-80
2022/11/24 08:33:49;;;;;;;17.48;6.82;;;;;;;;;;5060153;28;20041;-80
2022/11/24 08:36:18;;;;;;;27.20;7.07;;;;;;;;;;5059107;28;20061;-80
2022/11/24 08:38:48;;;;;;;20.88;7.10;;;;;;;;;;5059884;28;20101;-80
2022/11/24 08:41:16;;;;;;;19.55;6.60;;;;;;;;;;5061210;28;20042;-80
2022/11/24 08:43:45;;;;;;;20.25;6.70;;;;;;;;;;5055013;28;20045;-80
2022/11/24 08:46:15;;;;;;;19.00;6.57;;;;;;;;;;5058503;28;20060;-80
2022/11/24 08:48:44;;;;;;;14.02;5.32;;;;;;;;;;5057412;28;20076;-80
2022/11/24 08:51:13;;;;;;;18.48;6.68;;;;;;;;;;5059520;28;20052;-80
2022/11/24 08:53:43;;;;;;;18.50;6.60;;;;;;;;;;5050063;28;20038;-79
2022/11/24 08:56:11;;;;;;;22.45;7.20;;;;;;;;;;5062475;28;20041;-79
2022/11/24 08:58:42;;;;;;;24.20;7.03;;;;;;;;;;5058656;28;20046;-80
2022/11/24 09:01:12;;;;;;;20.63;8.13;;;;;;;;;;5056004;28;20053;-80
2022/11/24 09:03:40;;;;;;;26.88;8.18;;;;;;;;;;5059319;28;20053;-80
2022/11/24 09:06:17;;;;;;;20.30;6.45;;;;;;;;;;5061089;28;20072;-80
2022/11/24 09:08:44;;;;;;;13.05;5.00;;;;;;;;;;5075572;28;20057;-80
2022/11/24 09:11:20;;;;;;;19.67;6.78;;;;;;;;;;5058153;28;20988;-79
2022/11/24 09:13:47;;;;;;;27.90;6.80;;;;;;;;;;5052190;28;20059;-80
2022/11/24 09:16:25;;;;;;;16.48;5.72;;;;;;;;;;5054911;28;20120;-79
2022/11/24 09:18:57;;;;;;;18.58;5.30;;;;;;;;;;5046103;28;20056;-79
2022/11/24 09:21:26;;;;;;;13.07;4.73;;;;;;;;;;5050114;28;20057;-79
2022/11/24 09:23:54;;;;;;;16.25;4.82;;;;;;;;;;5048963;28;20074;-80
2022/11/24 09:26:23;;;;;;;17.60;4.13;;;;;;;;;;5047275;28;20065;-79
2022/11/24 09:28:53;;;;;;;20.33;4.03;;;;;;;;;;5044894;28;20053;-79
2022/11/24 09:31:22;;;;;;;14.15;4.07;;;;;;;;;;5050413;28;20123;-79
2022/11/24 09:33:52;;;;;;;8.90;3.50;;;;;;;;;;5042901;28;20072;-79
2022/11/24 09:36:21;;;;;;;16.40;3.83;;;;;;;;;;5051359;28;20160;-79
2022/11/24 09:38:48;;;;;;;18.08;5.18;;;;;;;;;;5051250;28;20049;-79
2022/11/24 09:41:35;;;;;;;17.77;4.78;;;;;;;;;;5042153;28;20065;-79
2022/11/24 09:44:14;;;;;;;10.30;3.63;;;;;;;;;;5047340;28;20404;-78
2022/11/24 09:46:42;;;;;;;16.40;4.00;;;;;;;;;;5045184;28;20046;-78
2022/11/24 09:49:15;;;;;;;13.65;3.85;;;;;;;;;;5048248;28;20042;-79
2022/11/24 09:51:44;;;;;;;13.47;3.00;;;;;;;;;;5046434;28;20057;-78
2022/11/24 09:54:15;;;;;;;17.58;3.50;;;;;;;;;;5044258;28;20499;-79
2022/11/24 09:56:43;;;;;;;13.50;3.28;;;;;;;;;;5041360;28;20038;-79
2022/11/24 09:59:15;;;;;;;14.95;3.20;;;;;;;;;;5045977;28;20049;-78
2022/11/24 10:01:46;;;;;;;16.48;4.18;;;;;;;;;;5048440;28;20053;-79
2022/11/24 10:04:16;;;;;;;12.50;3.33;;;;;;;;;;5047593;28;20053;-79
2022/11/24 10:06:55;;;;;;;10.88;2.83;;;;;;;;;;5047144;28;20105;-79
2022/11/24 10:09:35;;;;;;;13.00;3.65;;;;;;;;;;5043256;28;20057;-78
2022/11/24 10:12:36;;;;;;;16.33;3.88;;;;;;;;;;5045300;28;20049;-79
2022/11/24 10:15:04;;;;;;;17.05;4.10;;;;;;;;;;5024394;28;20554;-78
2022/11/24 10:17:34;;;;;;;17.70;5.47;;;;;;;;;;5037731;28;20042;-79
2022/11/24 10:20:23;;;;;;;16.80;4.15;;;;;;;;;;5041689;28;20101;-79
2022/11/24 10:22:53;;;;;;;11.38;3.28;;;;;;;;;;5047094;28;20054;-79
2022/11/24 10:25:20;;;;;;;14.02;3.30;;;;;;;;;;5048063;28;20045;-79
2022/11/24 10:28:04;;;;;;;15.60;3.80;;;;;;;;;;5044565;28;20081;-78
2022/11/24 10:30:32;;;;;;;22.00;3.45;;;;;;;;;;5047930;28;20137;-79
2022/11/24 10:33:07;;;;;;;16.05;3.22;;;;;;;;;;5040589;28;20120;-79
2022/11/24 10:35:35;;;;;;;16.67;3.15;;;;;;;;;;5048201;28;20057;-79
2022/11/24 10:38:15;;;;;;;14.50;2.85;;;;;;;;;;5045824;28;20061;-79
2022/11/24 10:40:45;;;;;;;12.55;2.72;;;;;;;;;;5042014;28;20054;-79
2022/11/24 10:43:25;;;;;;;10.13;2.40;;;;;;;;;;5048324;28;20054;-78
2022/11/24 10:45:53;;;;;;;14.82;2.72;;;;;;;;;;5060573;28;20050;-79
2022/11/24 10:48:23;;;;;;;10.05;2.72;;;;;;;;;;5044999;28;20055;-79
2022/11/24 10:51:01;;;;;;;12.77;3.35;;;;;;;;;;5061687;28;20061;-78
2022/11/24 10:53:34;;;;;;;16.08;2.97;;;;;;;;;;5041787;28;20484;-78
2022/11/24 10:56:03;;;;;;;10.40;2.33;;;;;;;;;;5044770;28;20125;-78
2022/11/24 10:58:37;;;;;;;16.85;2.70;;;;;;;;;;5044314;28;21028;-79
2022/11/24 11:01:28;;;;;;;16.58;2.83;;;;;;;;;;5046984;28;20049;-78
2022/11/24 11:03:57;;;;;;;21.00;3.30;;;;;;;;;;5040832;28;20050;-78
2022/11/24 11:06:29;;;;;;;16.38;3.28;;;;;;;;;;5045576;28;20108;-78
2022/11/24 11:09:05;;;;;;;11.82;2.97;;;;;;;;;;5053463;28;20065;-79
2022/11/24 11:11:34;;;;;;;13.60;2.78;;;;;;;;;;5051581;28;20184;-80
2022/11/24 11:14:05;;;;;;;13.80;2.83;;;;;;;;;;5051956;28;20050;-78
2022/11/24 11:16:38;;;;;;;14.45;3.13;;;;;;;;;;5045967;28;20053;-79
2022/11/24 11:19:25;;;;;;;19.80;3.10;;;;;;;;;;5046257;28;20805;-78
2022/11/24 11:22:12;;;;;;;14.32;2.80;;;;;;;;;;5044878;28;20065;-79
2022/11/24 11:24:40;;;;;;;21.58;3.25;;;;;;;;;;5043128;28;20158;-78
2022/11/24 11:27:28;;;;;;;20.60;3.45;;;;;;;;;;5041956;28;20803;-78
2022/11/24 11:30:11;;;;;;;23.75;3.20;;;;;;;;;;5066919;28;20376;-79
2022/11/24 11:32:59;;;;;;;15.35;3.35;;;;;;;;;;5047022;28;20049;-78
2022/11/24 11:35:47;;;;;;;15.13;3.95;;;;;;;;;;5049913;28;20057;-78
2022/11/24 11:38:18;;;;;;;19.98;3.72;;;;;;;;;;5048306;28;20052;-78
2022/11/24 11:40:48;;;;;;;15.52;3.85;;;;;;;;;;5047877;28;20069;-78
2022/11/24 11:43:22;;;;;;;21.95;3.53;;;;;;;;;;5049899;28;20076;-78
2022/11/24 11:45:56;;;;;;;18.35;3.83;;;;;;;;;;5050057;28;20128;-78
2022/11/24 11:48:26;;;;;;;20.10;3.42;;;;;;;;;;5049981;28;20057;-78
2022/11/24 11:51:12;;;;;;;14.38;3.28;;;;;;;;;;5046807;28;20042;-78
2022/11/24 11:53:50;;;;;;;17.00;3.13;;;;;;;;;;5047825;28;20056;-78
2022/11/24 11:56:23;;;;;;;17.27;3.45;;;;;;;;;;5061097;28;20064;-78
2022/11/24 11:58:50;;;;;;;22.88;3.17;;;;;;;;;;5046036;28;20050;-78
2022/11/24 12:01:17;;;;;;;18.05;3.92;;;;;;;;;;5051976;28;20720;-79
2022/11/24 12:03:48;;;;;;;18.42;3.00;;;;;;;;;;5047812;28;20052;-79
2022/11/24 12:06:21;;;;;;;15.07;2.92;;;;;;;;;;5051491;28;20061;-78
2022/11/24 12:08:53;;;;;;;19.20;4.28;;;;;;;;;;5052965;28;20049;-79
2022/11/24 12:11:48;;;;;;;16.27;3.38;;;;;;;;;;5049784;28;20057;-79
2022/11/24 12:14:20;;;;;;;16.53;3.17;;;;;;;;;;5044666;28;20049;-79
2022/11/24 12:17:17;;;;;;;12.73;2.50;;;;;;;;;;5051412;28;20060;-79
2022/11/24 12:19:56;;;;;;;21.90;3.58;;;;;;;;;;5037657;28;20057;-79
2022/11/24 12:22:36;;;;;;;14.95;2.53;;;;;;;;;;5050979;28;20060;-78
2022/11/24 12:25:15;;;;;;;20.58;2.88;;;;;;;;;;5050337;28;20053;-78
2022/11/24 12:28:05;;;;;;;15.50;2.92;;;;;;;;;;5053234;28;20084;-79
2022/11/24 12:30:47;;;;;;;16.05;2.80;;;;;;;;;;5051166;28;20105;-79
2022/11/24 12:33:34;;;;;;;15.48;2.85;;;;;;;;;;5046992;28;20054;-79
2022/11/24 12:36:21;;;;;;;12.18;3.53;;;;;;;;;;5053716;28;20588;-79
2022/11/24 12:38:49;;;;;;;11.90;2.30;;;;;;;;;;5002925;28;20058;-79
2022/11/24 12:41:26;;;;;;;15.55;2.60;;;;;;;;;;5008091;28;20050;-79
2022/11/24 12:44:29;;;;;;;15.20;2.55;;;;;;;;;;5005282;28;20073;-79
2022/11/24 12:47:02;;;;;;;14.98;3.00;;;;;;;;;;4999302;28;20066;-79
2022/11/24 12:49:36;;;;;;;19.40;2.90;;;;;;;;;;5006828;28;20093;-78
2022/11/24 12:52:22;;;;;;;19.88;3.17;;;;;;;;;;5006942;28;20046;-79
2022/11/24 12:54:49;;;;;;;17.70;3.33;;;;;;;;;;5006441;28;20839;-79
2022/11/24 12:57:21;;;;;;;20.65;3.30;;;;;;;;;;5006807;28;21217;-78
2022/11/24 12:59:55;;;;;;;17.08;2.15;;;;;;;;;;5004835;28;20084;-79
2022/11/24 13:02:41;;;;;;;13.07;2.85;;;;;;;;;;5003969;28;22187;-78
2022/11/24 13:05:23;;;;;;;17.20;2.80;;;;;;;;;;5002988;28;20054;-78
2022/11/24 13:07:56;;;;;;;15.90;2.63;;;;;;;;;;5004206;28;20508;-78
2022/11/24 13:10:24;;;;;;;16.58;3.08;;;;;;;;;;5005771;28;20058;-79
2022/11/24 13:13:12;;;;;;;11.43;2.70;;;;;;;;;;5005891;28;20093;-79
2022/11/24 13:15:52;;;;;;;18.05;2.70;;;;;;;;;;5007452;28;20050;-79
2022/11/24 13:18:46;;;;;;;14.90;3.40;;;;;;;;;;5042851;28;20836;-78
2022/11/24 13:21:34;;;;;;;12.20;2.75;;;;;;;;;;5047621;28;20068;-79
2022/11/24 13:24:05;;;;;;;12.48;2.35;;;;;;;;;;5044420;28;20041;-79
2022/11/24 13:26:38;;;;;;;26.13;3.35;;;;;;;;;;5037203;28;20490;-78
2022/11/24 13:29:26;;;;;;;20.35;2.83;;;;;;;;;;5048163;28;20054;-79
2022/11/24 13:32:04;;;;;;;14.90;2.80;;;;;;;;;;5042425;28;20064;-78
2022/11/24 13:34:48;;;;;;;15.13;2.90;;;;;;;;;;5042047;28;20046;-78
2022/11/24 13:37:20;;;;;;;15.93;2.85;;;;;;;;;;5043461;28;20089;-78
2022/11/24 13:40:11;;;;;;;15.45;3.03;;;;;;;;;;5048455;28;20661;-78
2022/11/24 13:42:56;;;;;;;12.63;2.65;;;;;;;;;;5045250;28;20054;-78
2022/11/24 13:45:43;;;;;;;17.48;3.22;;;;;;;;;;5061176;28;20050;-80
2022/11/24 13:48:20;;;;;;;18.75;3.30;;;;;;;;;;5041617;28;20813;-78
2022/11/24 13:50:57;;;;;;;17.25;2.45;;;;;;;;;;5042241;28;20050;-78
2022/11/24 13:53:32;;;;;;;22.27;2.97;;;;;;;;;;5042561;28;20049;-78
2022/11/24 13:55:59;;;;;;;17.33;2.80;;;;;;;;;;5042528;28;20968;-78
2022/11/24 13:58:42;;;;;;;16.52;2.55;;;;;;;;;;5052639;28;20576;-76
2022/11/24 14:01:11;;;;;;;13.93;2.55;;;;;;;;;;5041860;28;20053;-76
2022/11/24 14:03:58;;;;;;;12.27;2.08;;;;;;;;;;5043467;28;20073;-76
2022/11/24 14:06:45;;;;;;;18.90;3.35;;;;;;;;;;5037507;28;20307;-75
2022/11/24 14:09:51;;;;;;;17.48;3.20;;;;;;;;;;5040907;28;20060;-75
2022/11/24 14:12:20;;;;;;;15.98;2.45;;;;;;;;;;5001745;28;20064;-76
2022/11/24 14:14:48;;;;;;;15.85;2.47;;;;;;;;;;5003037;28;20050;-75
2022/11/24 14:17:17;;;;;;;23.50;3.20;;;;;;;;;;5002351;28;20050;-75
2022/11/24 14:19:46;;;;;;;14.95;3.38;;;;;;;;;;5000904;28;20059;-75
2022/11/24 14:22:25;;;;;;;15.82;3.67;;;;;;;;;;5000316;28;20933;-75
2022/11/24 14:24:55;;;;;;;16.55;3.10;;;;;;;;;;4985303;28;20148;-76
2022/11/24 14:27:28;;;;;;;15.55;2.70;;;;;;;;;;4998101;28;20122;-75
2022/11/24 14:30:05;;;;;;;17.23;2.83;;;;;;;;;;5002362;28;20057;-76
2022/11/24 14:32:36;;;;;;;16.95;2.60;;;;;;;;;;5003682;28;20046;-76
2022/11/24 14:35:23;;;;;;;18.25;2.70;;;;;;;;;;5004673;28;20058;-75
2022/11/24 14:37:50;;;;;;;21.10;2.90;;;;;;;;;;5001616;28;20078;-75
2022/11/24 14:40:36;;;;;;;23.20;3.13;;;;;;;;;;5001739;28;20558;-76
2022/11/24 14:43:05;;;;;;;24.38;3.60;;;;;;;;;;5022882;28;20136;-76
2022/11/24 14:45:33;;;;;;;12.38;2.70;;;;;;;;;;5041361;28;20177;-76
2022/11/24 14:48:01;;;;;;;20.50;3.15;;;;;;;;;;5040926;28;20050;-76
2022/11/24 14:50:31;;;;;;;15.23;2.97;;;;;;;;;;5056321;28;20057;-76
2022/11/24 14:52:59;;;;;;;15.80;2.78;;;;;;;;;;5044985;28;20038;-77
2022/11/24 14:55:28;;;;;;;12.50;2.28;;;;;;;;;;5065261;28;20041;-76
2022/11/24 14:57:56;;;;;;;14.48;2.78;;;;;;;;;;5041168;28;20057;-76
2022/11/24 15:00:28;;;;;;;17.02;2.60;;;;;;;;;;5060305;28;20147;-75
2022/11/24 15:03:06;;;;;;;19.60;2.72;;;;;;;;;;5043108;28;20053;-77